sensor_id;sensor_type;location;lat;lon;timestamp;pressure;altitude;pressure_sealevel;temperature;humidity
80128;BME280;69440;52.118;5.408;2023-11-19T00:00:28;100894.13;;;12.48;100.00
80128;BME280;69440;52.118;5.408;2023-11-19T00:02:54;100878.03;;;12.46;100.00
80128;BME280;69440;52.118;5.408;2023-11-19T00:05:21;100892.50;;;12.45;100.00
80128;BME280;69440;52.118;5.408;2023-11-19T00:07:47;100893.44;;;12.44;100.00
80128;BME280;69440;52.118;5.408;2023-11-19T00:10:15;100880.84;;;12.44;100.00
80128;BME280;69440;52.118;5.408;2023-11-19T00:12:46;100877.19;;;12.46;100.00
80128;BME280;69440;52.118;5.408;2023-11-19T00:15:14;100869.09;;;12.46;100.00
80128;BME280;69440;52.118;5.408;2023-11-19T00:17:41;100874.59;;;12.44;100.00
80128;BME280;69440;52.118;5.408;2023-11-19T00:20:13;100869.09;;;12.46;100.00
80128;BME280;69440;52.118;5.408;2023-11-19T00:22:40;100873.31;;;12.50;100.00
80128;BME280;69440;52.118;5.408;2023-11-19T00:25:10;100872.34;;;12.51;100.00
80128;BME280;69440;52.118;5.408;2023-11-19T00:27:37;100875.25;;;12.48;100.00
80128;BME280;69440;52.118;5.408;2023-11-19T00:30:05;100861.75;;;12.48;100.00
80128;BME280;69440;52.118;5.408;2023-11-19T00:32:32;100865.44;;;12.47;100.00
80128;BME280;69440;52.118;5.408;2023-11-19T00:34:59;100861.09;;;12.44;100.00
80128;BME280;69440;52.118;5.408;2023-11-19T00:37:26;100859.47;;;12.41;100.00
80128;BME280;69440;52.118;5.408;2023-11-19T00:39:52;100863.91;;;12.42;100.00
80128;BME280;69440;52.118;5.408;2023-11-19T00:42:19;100853.88;;;12.44;100.00
80128;BME280;69440;52.118;5.408;2023-11-19T00:44:45;100860.03;;;12.47;100.00
80128;BME280;69440;52.118;5.408;2023-11-19T00:47:15;100856.59;;;12.44;100.00
80128;BME280;69440;52.118;5.408;2023-11-19T00:49:41;100843.97;;;12.45;100.00
80128;BME280;69440;52.118;5.408;2023-11-19T00:52:09;100841.38;;;12.43;100.00
80128;BME280;69440;52.118;5.408;2023-11-19T00:54:35;100841.28;;;12.45;100.00
80128;BME280;69440;52.118;5.408;2023-11-19T00:57:02;100841.94;;;12.49;100.00
80128;BME280;69440;52.118;5.408;2023-11-19T00:59:28;100843.75;;;12.48;100.00
80128;BME280;69440;52.118;5.408;2023-11-19T01:01:55;100851.75;;;12.50;100.00
80128;BME280;69440;52.118;5.408;2023-11-19T01:04:22;100846.44;;;12.48;100.00
80128;BME280;69440;52.118;5.408;2023-11-19T01:06:50;100841.94;;;12.49;100.00
80128;BME280;69440;52.118;5.408;2023-11-19T01:09:17;100840.00;;;12.51;100.00
80128;BME280;69440;52.118;5.408;2023-11-19T01:11:43;100845.47;;;12.49;100.00
80128;BME280;69440;52.118;5.408;2023-11-19T01:14:10;100857.13;;;12.50;100.00
80128;BME280;69440;52.118;5.408;2023-11-19T01:16:36;100856.28;;;12.49;100.00
80128;BME280;69440;52.118;5.408;2023-11-19T01:19:03;100842.69;;;12.51;100.00
80128;BME280;69440;52.118;5.408;2023-11-19T01:21:43;100833.63;;;12.52;100.00
80128;BME280;69440;52.118;5.408;2023-11-19T01:24:09;100825.53;;;12.52;100.00
80128;BME280;69440;52.118;5.408;2023-11-19T01:26:38;100823.91;;;12.49;100.00
80128;BME280;69440;52.118;5.408;2023-11-19T01:29:05;100846.34;;;12.50;100.00
80128;BME280;69440;52.118;5.408;2023-11-19T01:31:31;100820.34;;;12.49;100.00
80128;BME280;69440;52.118;5.408;2023-11-19T01:34:00;100823.81;;;12.51;100.00
80128;BME280;69440;52.118;5.408;2023-11-19T01:36:27;100821.13;;;12.51;100.00
80128;BME280;69440;52.118;5.408;2023-11-19T01:38:53;100822.84;;;12.52;100.00
80128;BME280;69440;52.118;5.408;2023-11-19T01:41:19;100828.13;;;12.53;100.00
80128;BME280;69440;52.118;5.408;2023-11-19T01:43:46;100824.47;;;12.54;100.00
80128;BME280;69440;52.118;5.408;2023-11-19T01:46:13;100820.03;;;12.53;100.00
80128;BME280;69440;52.118;5.408;2023-11-19T01:48:43;100825.44;;;12.53;100.00
80128;BME280;69440;52.118;5.408;2023-11-19T01:51:12;100824.69;;;12.51;100.00
80128;BME280;69440;52.118;5.408;2023-11-19T01:53:39;100826.63;;;12.49;100.00
80128;BME280;69440;52.118;5.408;2023-11-19T01:56:07;100838.25;;;12.50;100.00
80128;BME280;69440;52.118;5.408;2023-11-19T01:58:36;100825.66;;;12.50;100.00
80128;BME280;69440;52.118;5.408;2023-11-19T02:01:03;100826.41;;;12.52;100.00
80128;BME280;69440;52.118;5.408;2023-11-19T02:03:34;100832.00;;;12.49;100.00
80128;BME280;69440;52.118;5.408;2023-11-19T02:06:00;100832.09;;;12.48;100.00
80128;BME280;69440;52.118;5.408;2023-11-19T02:08:27;100824.22;;;12.44;100.00
80128;BME280;69440;52.118;5.408;2023-11-19T02:10:53;100822.72;;;12.40;100.00
80128;BME280;69440;52.118;5.408;2023-11-19T02:13:25;100819.47;;;12.35;100.00
80128;BME280;69440;52.118;5.408;2023-11-19T02:15:51;100807.28;;;12.30;100.00
80128;BME280;69440;52.118;5.408;2023-11-19T02:18:23;100809.31;;;12.26;100.00
80128;BME280;69440;52.118;5.408;2023-11-19T02:20:54;100815.72;;;12.24;100.00
80128;BME280;69440;52.118;5.408;2023-11-19T02:23:22;100822.94;;;12.23;100.00
80128;BME280;69440;52.118;5.408;2023-11-19T02:26:00;100824.13;;;12.19;100.00
80128;BME280;69440;52.118;5.408;2023-11-19T02:28:28;100844.16;;;12.15;100.00
80128;BME280;69440;52.118;5.408;2023-11-19T02:30:54;100837.91;;;12.15;100.00
80128;BME280;69440;52.118;5.408;2023-11-19T02:33:21;100848.03;;;12.11;100.00
80128;BME280;69440;52.118;5.408;2023-11-19T02:35:47;100846.50;;;12.07;100.00
80128;BME280;69440;52.118;5.408;2023-11-19T02:38:14;100844.97;;;12.03;100.00
80128;BME280;69440;52.118;5.408;2023-11-19T02:40:41;100839.88;;;11.98;100.00
80128;BME280;69440;52.118;5.408;2023-11-19T02:43:08;100826.53;;;11.97;100.00
80128;BME280;69440;52.118;5.408;2023-11-19T02:45:35;100844.50;;;11.96;100.00
80128;BME280;69440;52.118;5.408;2023-11-19T02:48:02;100823.13;;;11.93;100.00
80128;BME280;69440;52.118;5.408;2023-11-19T02:50:28;100828.72;;;11.90;100.00
80128;BME280;69440;52.118;5.408;2023-11-19T02:52:56;100829.69;;;11.89;100.00
80128;BME280;69440;52.118;5.408;2023-11-19T02:55:24;100821.91;;;11.85;100.00
80128;BME280;69440;52.118;5.408;2023-11-19T02:57:51;100829.13;;;11.84;100.00
80128;BME280;69440;52.118;5.408;2023-11-19T03:00:21;100833.66;;;11.84;100.00
80128;BME280;69440;52.118;5.408;2023-11-19T03:02:51;100835.84;;;11.77;100.00
80128;BME280;69440;52.118;5.408;2023-11-19T03:05:41;100822.56;;;11.74;100.00
80128;BME280;69440;52.118;5.408;2023-11-19T03:08:07;100824.03;;;11.65;100.00
80128;BME280;69440;52.118;5.408;2023-11-19T03:10:34;100826.91;;;11.62;100.00
80128;BME280;69440;52.118;5.408;2023-11-19T03:13:01;100827.97;;;11.60;100.00
80128;BME280;69440;52.118;5.408;2023-11-19T03:15:29;100823.53;;;11.59;100.00
80128;BME280;69440;52.118;5.408;2023-11-19T03:17:56;100825.56;;;11.55;100.00
80128;BME280;69440;52.118;5.408;2023-11-19T03:20:22;100841.91;;;11.52;100.00
80128;BME280;69440;52.118;5.408;2023-11-19T03:22:50;100843.06;;;11.48;100.00
80128;BME280;69440;52.118;5.408;2023-11-19T03:25:17;100827.22;;;11.43;100.00
80128;BME280;69440;52.118;5.408;2023-11-19T03:27:44;100834.53;;;11.41;100.00
80128;BME280;69440;52.118;5.408;2023-11-19T03:30:10;100824.81;;;11.39;100.00
80128;BME280;69440;52.118;5.408;2023-11-19T03:32:37;100827.59;;;11.37;100.00
80128;BME280;69440;52.118;5.408;2023-11-19T03:35:05;100834.03;;;11.35;100.00
80128;BME280;69440;52.118;5.408;2023-11-19T03:37:35;100819.03;;;11.31;100.00
80128;BME280;69440;52.118;5.408;2023-11-19T03:40:03;100822.69;;;11.30;100.00
80128;BME280;69440;52.118;5.408;2023-11-19T03:42:30;100815.75;;;11.26;100.00
80128;BME280;69440;52.118;5.408;2023-11-19T03:44:57;100793.75;;;11.19;100.00
80128;BME280;69440;52.118;5.408;2023-11-19T03:47:24;100806.34;;;11.18;100.00
80128;BME280;69440;52.118;5.408;2023-11-19T03:49:51;100810.09;;;11.16;100.00
80128;BME280;69440;52.118;5.408;2023-11-19T03:52:18;100803.09;;;11.13;100.00
80128;BME280;69440;52.118;5.408;2023-11-19T03:54:46;100813.25;;;11.08;100.00
80128;BME280;69440;52.118;5.408;2023-11-19T03:57:13;100826.81;;;11.07;100.00
80128;BME280;69440;52.118;5.408;2023-11-19T03:59:39;100828.63;;;11.06;100.00
80128;BME280;69440;52.118;5.408;2023-11-19T04:02:06;100832.47;;;11.02;100.00
80128;BME280;69440;52.118;5.408;2023-11-19T04:04:33;100833.34;;;11.03;100.00
80128;BME280;69440;52.118;5.408;2023-11-19T04:07:01;100832.53;;;11.01;100.00
80128;BME280;69440;52.118;5.408;2023-11-19T04:09:29;100839.84;;;10.99;100.00
80128;BME280;69440;52.118;5.408;2023-11-19T04:11:56;100840.78;;;10.98;100.00
80128;BME280;69440;52.118;5.408;2023-11-19T04:14:23;100839.94;;;10.97;100.00
80128;BME280;69440;52.118;5.408;2023-11-19T04:16:49;100851.63;;;10.96;100.00
80128;BME280;69440;52.118;5.408;2023-11-19T04:19:18;100859.72;;;10.96;100.00
80128;BME280;69440;52.118;5.408;2023-11-19T04:21:45;100849.81;;;10.97;100.00
80128;BME280;69440;52.118;5.408;2023-11-19T04:24:11;100856.16;;;10.96;100.00
80128;BME280;69440;52.118;5.408;2023-11-19T04:26:41;100861.53;;;10.96;100.00
80128;BME280;69440;52.118;5.408;2023-11-19T04:29:09;100876.81;;;10.95;100.00
80128;BME280;69440;52.118;5.408;2023-11-19T04:31:37;100850.88;;;10.94;100.00
80128;BME280;69440;52.118;5.408;2023-11-19T04:34:04;100845.69;;;10.91;100.00
80128;BME280;69440;52.118;5.408;2023-11-19T04:36:33;100845.00;;;10.87;100.00
80128;BME280;69440;52.118;5.408;2023-11-19T04:39:00;100840.59;;;10.86;100.00
80128;BME280;69440;52.118;5.408;2023-11-19T04:41:27;100837.91;;;10.86;100.00
80128;BME280;69440;52.118;5.408;2023-11-19T04:43:54;100840.78;;;10.83;100.00
80128;BME280;69440;52.118;5.408;2023-11-19T04:46:21;100852.59;;;10.81;100.00
80128;BME280;69440;52.118;5.408;2023-11-19T04:48:49;100858.03;;;10.79;100.00
80128;BME280;69440;52.118;5.408;2023-11-19T04:51:16;100853.63;;;10.78;100.00
80128;BME280;69440;52.118;5.408;2023-11-19T04:53:43;100851.81;;;10.79;100.00
80128;BME280;69440;52.118;5.408;2023-11-19T04:56:10;100849.13;;;10.79;100.00
80128;BME280;69440;52.118;5.408;2023-11-19T04:58:37;100831.16;;;10.79;100.00
80128;BME280;69440;52.118;5.408;2023-11-19T05:01:04;100830.31;;;10.79;100.00
80128;BME280;69440;52.118;5.408;2023-11-19T05:03:31;100839.41;;;10.76;100.00
80128;BME280;69440;52.118;5.408;2023-11-19T05:05:58;100838.75;;;10.73;100.00
80128;BME280;69440;52.118;5.408;2023-11-19T05:08:25;100845.06;;;10.72;100.00
80128;BME280;69440;52.118;5.408;2023-11-19T05:10:52;100853.19;;;10.70;100.00
80128;BME280;69440;52.118;5.408;2023-11-19T05:13:18;100860.50;;;10.68;100.00
80128;BME280;69440;52.118;5.408;2023-11-19T05:15:45;100857.03;;;10.66;100.00
80128;BME280;69440;52.118;5.408;2023-11-19T05:18:11;100862.31;;;10.68;100.00
80128;BME280;69440;52.118;5.408;2023-11-19T05:20:37;100862.41;;;10.66;100.00
80128;BME280;69440;52.118;5.408;2023-11-19T05:23:04;100842.03;;;10.62;100.00
80128;BME280;69440;52.118;5.408;2023-11-19T05:25:30;100852.78;;;10.62;100.00
80128;BME280;69440;52.118;5.408;2023-11-19T05:27:57;100850.97;;;10.63;100.00
80128;BME280;69440;52.118;5.408;2023-11-19T05:30:23;100855.56;;;10.61;100.00
80128;BME280;69440;52.118;5.408;2023-11-19T05:32:50;100845.00;;;10.57;100.00
80128;BME280;69440;52.118;5.408;2023-11-19T05:35:16;100841.63;;;10.54;100.00
80128;BME280;69440;52.118;5.408;2023-11-19T05:37:43;100849.00;;;10.50;100.00
80128;BME280;69440;52.118;5.408;2023-11-19T05:40:09;100839.22;;;10.49;100.00
80128;BME280;69440;52.118;5.408;2023-11-19T05:42:41;100853.63;;;10.48;100.00
80128;BME280;69440;52.118;5.408;2023-11-19T05:45:11;100851.88;;;10.47;100.00
80128;BME280;69440;52.118;5.408;2023-11-19T05:47:38;100851.19;;;10.44;100.00
80128;BME280;69440;52.118;5.408;2023-11-19T05:50:05;100856.66;;;10.42;100.00
80128;BME280;69440;52.118;5.408;2023-11-19T05:52:32;100854.75;;;10.44;100.00
80128;BME280;69440;52.118;5.408;2023-11-19T05:55:00;100859.25;;;10.44;100.00
80128;BME280;69440;52.118;5.408;2023-11-19T05:57:30;100855.81;;;10.42;100.00
80128;BME280;69440;52.118;5.408;2023-11-19T05:59:57;100861.19;;;10.42;100.00
80128;BME280;69440;52.118;5.408;2023-11-19T06:02:25;100855.00;;;10.40;100.00
80128;BME280;69440;52.118;5.408;2023-11-19T06:04:53;100861.19;;;10.42;100.00
80128;BME280;69440;52.118;5.408;2023-11-19T06:07:19;100861.94;;;10.44;100.00
80128;BME280;69440;52.118;5.408;2023-11-19T06:09:46;100856.56;;;10.44;100.00
80128;BME280;69440;52.118;5.408;2023-11-19T06:12:12;100852.16;;;10.43;100.00
80128;BME280;69440;52.118;5.408;2023-11-19T06:14:40;100847.75;;;10.42;100.00
80128;BME280;69440;52.118;5.408;2023-11-19T06:17:07;100845.91;;;10.42;100.00
80128;BME280;69440;52.118;5.408;2023-11-19T06:19:34;100844.25;;;10.40;100.00
80128;BME280;69440;52.118;5.408;2023-11-19T06:22:04;100849.72;;;10.38;100.00
80128;BME280;69440;52.118;5.408;2023-11-19T06:24:30;100855.00;;;10.40;100.00
80128;BME280;69440;52.118;5.408;2023-11-19T06:26:57;100859.50;;;10.39;100.00
80128;BME280;69440;52.118;5.408;2023-11-19T06:29:24;100859.59;;;10.38;100.00
80128;BME280;69440;52.118;5.408;2023-11-19T06:31:51;100856.13;;;10.36;100.00
80128;BME280;69440;52.118;5.408;2023-11-19T06:34:17;100861.59;;;10.34;100.00
80128;BME280;69440;52.118;5.408;2023-11-19T06:36:44;100878.66;;;10.33;100.00
80128;BME280;69440;52.118;5.408;2023-11-19T06:39:11;100864.19;;;10.36;100.00
80128;BME280;69440;52.118;5.408;2023-11-19T06:41:38;100866.00;;;10.35;100.00
80128;BME280;69440;52.118;5.408;2023-11-19T06:44:05;100867.06;;;10.33;100.00
80128;BME280;69440;52.118;5.408;2023-11-19T06:46:32;100875.19;;;10.31;100.00
80128;BME280;69440;52.118;5.408;2023-11-19T06:48:58;100879.63;;;10.32;100.00
80128;BME280;69440;52.118;5.408;2023-11-19T06:51:24;100877.88;;;10.31;100.00
80128;BME280;69440;52.118;5.408;2023-11-19T06:53:51;100885.94;;;10.31;100.00
80128;BME280;69440;52.118;5.408;2023-11-19T06:56:27;100877.97;;;10.30;100.00
80128;BME280;69440;52.118;5.408;2023-11-19T06:58:53;100882.50;;;10.29;100.00
80128;BME280;69440;52.118;5.408;2023-11-19T07:01:20;100889.59;;;10.30;100.00
80128;BME280;69440;52.118;5.408;2023-11-19T07:03:48;100889.69;;;10.29;100.00
80128;BME280;69440;52.118;5.408;2023-11-19T07:06:15;100886.03;;;10.30;100.00
80128;BME280;69440;52.118;5.408;2023-11-19T07:08:41;100893.13;;;10.31;100.00
80128;BME280;69440;52.118;5.408;2023-11-19T07:11:11;100897.66;;;10.30;100.00
80128;BME280;69440;52.118;5.408;2023-11-19T07:13:38;100905.72;;;10.30;100.00
80128;BME280;69440;52.118;5.408;2023-11-19T07:16:05;100907.53;;;10.30;100.00
80128;BME280;69440;52.118;5.408;2023-11-19T07:18:31;100904.75;;;10.31;100.00
80128;BME280;69440;52.118;5.408;2023-11-19T07:20:58;100912.72;;;10.33;100.00
80128;BME280;69440;52.118;5.408;2023-11-19T07:23:26;100917.06;;;10.35;100.00
80128;BME280;69440;52.118;5.408;2023-11-19T07:25:52;100915.22;;;10.36;100.00
80128;BME280;69440;52.118;5.408;2023-11-19T07:28:19;100911.59;;;10.37;100.00
80128;BME280;69440;52.118;5.408;2023-11-19T07:30:46;100918.59;;;10.39;100.00
80128;BME280;69440;52.118;5.408;2023-11-19T07:33:12;100916.88;;;10.38;100.00
80128;BME280;69440;52.118;5.408;2023-11-19T07:35:40;100909.59;;;10.40;100.00
80128;BME280;69440;52.118;5.408;2023-11-19T07:38:08;100912.47;;;10.37;100.00
80128;BME280;69440;52.118;5.408;2023-11-19T07:40:35;100914.19;;;10.38;100.00
80128;BME280;69440;52.118;5.408;2023-11-19T07:43:01;100913.31;;;10.38;100.00
80128;BME280;69440;52.118;5.408;2023-11-19T07:45:28;100922.97;;;10.42;100.00
80128;BME280;69440;52.118;5.408;2023-11-19T07:47:54;100931.97;;;10.41;100.00
80128;BME280;69440;52.118;5.408;2023-11-19T07:50:21;100920.28;;;10.42;100.00
80128;BME280;69440;52.118;5.408;2023-11-19T07:52:47;100913.78;;;10.46;100.00
80128;BME280;69440;52.118;5.408;2023-11-19T07:55:14;100919.84;;;10.49;100.00
80128;BME280;69440;52.118;5.408;2023-11-19T07:57:40;100913.41;;;10.52;100.00
80128;BME280;69440;52.118;5.408;2023-11-19T08:00:07;100918.78;;;10.52;100.00
80128;BME280;69440;52.118;5.408;2023-11-19T08:02:38;100913.50;;;10.50;100.00
80128;BME280;69440;52.118;5.408;2023-11-19T08:05:06;100908.03;;;10.52;100.00
80128;BME280;69440;52.118;5.408;2023-11-19T08:07:32;100902.50;;;10.55;100.00
80128;BME280;69440;52.118;5.408;2023-11-19T08:09:59;100903.16;;;10.58;100.00
80128;BME280;69440;52.118;5.408;2023-11-19T08:12:26;100911.91;;;10.62;100.00
80128;BME280;69440;52.118;5.408;2023-11-19T08:14:52;100913.56;;;10.65;100.00
80128;BME280;69440;52.118;5.408;2023-11-19T08:17:19;100914.34;;;10.67;100.00
80128;BME280;69440;52.118;5.408;2023-11-19T08:19:45;100922.22;;;10.70;100.00
80128;BME280;69440;52.118;5.408;2023-11-19T08:22:12;100920.25;;;10.73;100.00
80128;BME280;69440;52.118;5.408;2023-11-19T08:24:38;100916.41;;;10.77;100.00
80128;BME280;69440;52.118;5.408;2023-11-19T08:27:05;100912.78;;;10.78;100.00
80128;BME280;69440;52.118;5.408;2023-11-19T08:29:31;100907.50;;;10.77;100.00
80128;BME280;69440;52.118;5.408;2023-11-19T08:32:00;100921.78;;;10.77;100.00
80128;BME280;69440;52.118;5.408;2023-11-19T08:34:29;100918.56;;;10.86;100.00
80128;BME280;69440;52.118;5.408;2023-11-19T08:36:55;100917.50;;;10.89;100.00
80128;BME280;69440;52.118;5.408;2023-11-19T08:39:22;100935.28;;;10.92;100.00
80128;BME280;69440;52.118;5.408;2023-11-19T08:41:48;100923.38;;;10.96;100.00
80128;BME280;69440;52.118;5.408;2023-11-19T08:44:15;100933.97;;;10.99;100.00
80128;BME280;69440;52.118;5.408;2023-11-19T08:46:50;100928.50;;;11.00;100.00
80128;BME280;69440;52.118;5.408;2023-11-19T08:49:17;100932.66;;;11.06;100.00
80128;BME280;69440;52.118;5.408;2023-11-19T08:51:45;100933.34;;;11.09;100.00
80128;BME280;69440;52.118;5.408;2023-11-19T08:54:12;100923.44;;;11.10;100.00
80128;BME280;69440;52.118;5.408;2023-11-19T08:56:39;100935.84;;;11.12;100.00
80128;BME280;69440;52.118;5.408;2023-11-19T08:59:05;100934.50;;;11.19;100.00
80128;BME280;69440;52.118;5.408;2023-11-19T09:01:32;100953.75;;;11.28;100.00
80128;BME280;69440;52.118;5.408;2023-11-19T09:03:59;100939.00;;;11.49;100.00
80128;BME280;69440;52.118;5.408;2023-11-19T09:06:25;100930.47;;;11.71;100.00
80128;BME280;69440;52.118;5.408;2023-11-19T09:08:52;100925.47;;;11.65;100.00
80128;BME280;69440;52.118;5.408;2023-11-19T09:11:18;100926.97;;;11.55;100.00
80128;BME280;69440;52.118;5.408;2023-11-19T09:13:45;100944.28;;;11.50;100.00
80128;BME280;69440;52.118;5.408;2023-11-19T09:16:12;100932.66;;;11.50;100.00
80128;BME280;69440;52.118;5.408;2023-11-19T09:18:38;100928.13;;;11.50;100.00
80128;BME280;69440;52.118;5.408;2023-11-19T09:21:05;100929.00;;;11.51;100.00
80128;BME280;69440;52.118;5.408;2023-11-19T09:23:31;100930.06;;;11.48;100.00
80128;BME280;69440;52.118;5.408;2023-11-19T09:26:02;100930.34;;;11.44;100.00
80128;BME280;69440;52.118;5.408;2023-11-19T09:28:29;100929.56;;;11.42;100.00
80128;BME280;69440;52.118;5.408;2023-11-19T09:30:55;100926.00;;;11.41;100.00
80128;BME280;69440;52.118;5.408;2023-11-19T09:33:22;100926.00;;;11.41;100.00
80128;BME280;69440;52.118;5.408;2023-11-19T09:35:49;100926.00;;;11.41;100.00
80128;BME280;69440;52.118;5.408;2023-11-19T09:38:16;100927.75;;;11.42;100.00
80128;BME280;69440;52.118;5.408;2023-11-19T09:40:43;100930.53;;;11.55;100.00
80128;BME280;69440;52.118;5.408;2023-11-19T09:43:10;100940.19;;;11.73;100.00
80128;BME280;69440;52.118;5.408;2023-11-19T09:45:50;100922.88;;;11.77;100.00
80128;BME280;69440;52.118;5.408;2023-11-19T09:48:17;100933.66;;;11.77;100.00
80128;BME280;69440;52.118;5.408;2023-11-19T09:50:46;100938.44;;;11.72;100.00
80128;BME280;69440;52.118;5.408;2023-11-19T09:53:14;100925.19;;;11.69;100.00
80128;BME280;69440;52.118;5.408;2023-11-19T09:55:40;100914.41;;;11.69;100.00
80128;BME280;69440;52.118;5.408;2023-11-19T09:58:07;100944.81;;;11.71;100.00
80128;BME280;69440;52.118;5.408;2023-11-19T10:00:34;100916.06;;;11.72;100.00
80128;BME280;69440;52.118;5.408;2023-11-19T10:03:02;100914.78;;;11.77;100.00
80128;BME280;69440;52.118;5.408;2023-11-19T10:05:29;100908.75;;;11.88;100.00
80128;BME280;69440;52.118;5.408;2023-11-19T10:07:55;100918.47;;;12.05;100.00
80128;BME280;69440;52.118;5.408;2023-11-19T10:10:24;100908.06;;;12.13;100.00
80128;BME280;69440;52.118;5.408;2023-11-19T10:12:58;100907.94;;;12.29;100.00
80128;BME280;69440;52.118;5.408;2023-11-19T10:15:27;100911.75;;;12.39;100.00
80128;BME280;69440;52.118;5.408;2023-11-19T10:17:57;100899.50;;;12.48;100.00
80128;BME280;69440;52.118;5.408;2023-11-19T10:20:24;100896.69;;;12.63;100.00
80128;BME280;69440;52.118;5.408;2023-11-19T10:22:54;100892.44;;;12.86;100.00
80128;BME280;69440;52.118;5.408;2023-11-19T10:25:22;100906.28;;;13.07;100.00
80128;BME280;69440;52.118;5.408;2023-11-19T10:27:51;100889.44;;;13.03;100.00
80128;BME280;69440;52.118;5.408;2023-11-19T10:30:22;100907.47;;;13.03;100.00
80128;BME280;69440;52.118;5.408;2023-11-19T10:33:07;100895.69;;;13.18;100.00
80128;BME280;69440;52.118;5.408;2023-11-19T10:35:37;100902.25;;;13.27;100.00
80128;BME280;69440;52.118;5.408;2023-11-19T10:38:28;100892.75;;;13.21;100.00
80128;BME280;69440;52.118;5.408;2023-11-19T10:41:01;100884.66;;;13.34;100.00
80128;BME280;69440;52.118;5.408;2023-11-19T10:43:27;100894.19;;;13.52;100.00
80128;BME280;69440;52.118;5.408;2023-11-19T10:46:11;100883.50;;;13.51;100.00
80128;BME280;69440;52.118;5.408;2023-11-19T10:48:39;100869.44;;;13.46;100.00
80128;BME280;69440;52.118;5.408;2023-11-19T10:51:07;100867.59;;;13.46;100.00
80128;BME280;69440;52.118;5.408;2023-11-19T10:53:45;100891.69;;;13.49;100.00
80128;BME280;69440;52.118;5.408;2023-11-19T10:56:13;100874.72;;;13.60;100.00
80128;BME280;69440;52.118;5.408;2023-11-19T10:58:44;100887.91;;;13.64;100.00
80128;BME280;69440;52.118;5.408;2023-11-19T11:01:16;100883.03;;;13.70;100.00
80128;BME280;69440;52.118;5.408;2023-11-19T11:03:45;100870.41;;;13.83;100.00
80128;BME280;69440;52.118;5.408;2023-11-19T11:06:18;100873.84;;;13.85;100.00
80128;BME280;69440;52.118;5.408;2023-11-19T11:08:46;100873.94;;;13.96;100.00
80128;BME280;69440;52.118;5.408;2023-11-19T11:11:15;100878.47;;;14.08;100.00
80128;BME280;69440;52.118;5.408;2023-11-19T11:13:44;100876.44;;;14.23;100.00
80128;BME280;69440;52.118;5.408;2023-11-19T11:16:11;100884.34;;;14.26;100.00
80128;BME280;69440;52.118;5.408;2023-11-19T11:18:39;100884.63;;;14.10;100.00
80128;BME280;69440;52.118;5.408;2023-11-19T11:21:07;100877.91;;;14.03;100.00
80128;BME280;69440;52.118;5.408;2023-11-19T11:27:00;100872.66;;;13.89;100.00
80128;BME280;69440;52.118;5.408;2023-11-19T11:29:41;100878.75;;;13.54;100.00
80128;BME280;69440;52.118;5.408;2023-11-19T11:32:37;100878.50;;;13.57;100.00
80128;BME280;69440;52.118;5.408;2023-11-19T11:35:19;100875.47;;;13.87;100.00
80128;BME280;69440;52.118;5.408;2023-11-19T11:38:06;100867.69;;;13.70;100.00
80128;BME280;69440;52.118;5.408;2023-11-19T11:40:34;100878.19;;;13.49;100.00
80128;BME280;69440;52.118;5.408;2023-11-19T11:43:01;100869.56;;;13.57;100.00
80128;BME280;69440;52.118;5.408;2023-11-19T11:45:38;100894.28;;;13.38;100.00
80128;BME280;69440;52.118;5.408;2023-11-19T11:48:09;100869.88;;;13.40;100.00
80128;BME280;69440;52.118;5.408;2023-11-19T11:50:52;100882.28;;;13.42;100.00
80128;BME280;69440;52.118;5.408;2023-11-19T11:53:23;100865.22;;;14.77;100.00
80128;BME280;69440;52.118;5.408;2023-11-19T11:58:30;100861.75;;;13.78;100.00
80128;BME280;69440;52.118;5.408;2023-11-19T12:00:59;100875.69;;;13.46;100.00
80128;BME280;69440;52.118;5.408;2023-11-19T12:03:28;100863.72;;;13.38;100.00
80128;BME280;69440;52.118;5.408;2023-11-19T12:05:57;100864.69;;;13.24;100.00
80128;BME280;69440;52.118;5.408;2023-11-19T12:08:26;100860.94;;;13.12;100.00
80128;BME280;69440;52.118;5.408;2023-11-19T12:10:54;100862.25;;;13.06;100.00
80128;BME280;69440;52.118;5.408;2023-11-19T12:13:29;100851.66;;;13.03;100.00
80128;BME280;69440;52.118;5.408;2023-11-19T12:18:30;100859.28;;;13.36;100.00
80128;BME280;69440;52.118;5.408;2023-11-19T12:20:57;100848.69;;;13.33;100.00
80128;BME280;69440;52.118;5.408;2023-11-19T12:23:27;100855.63;;;13.25;100.00
80128;BME280;69440;52.118;5.408;2023-11-19T12:25:56;100837.31;;;13.16;100.00
80128;BME280;69440;52.118;5.408;2023-11-19T12:28:23;100856.09;;;13.04;100.00
80128;BME280;69440;52.118;5.408;2023-11-19T12:30:53;100852.75;;;13.01;100.00
80128;BME280;69440;52.118;5.408;2023-11-19T12:33:20;100852.41;;;12.93;100.00
80128;BME280;69440;52.118;5.408;2023-11-19T12:35:48;100860.94;;;12.87;100.00
80128;BME280;69440;52.118;5.408;2023-11-19T12:38:21;100841.19;;;12.86;100.00
80128;BME280;69440;52.118;5.408;2023-11-19T12:43:36;100860.09;;;12.99;100.00
80128;BME280;69440;52.118;5.408;2023-11-19T12:49:12;100852.81;;;13.26;100.00
80128;BME280;69440;52.118;5.408;2023-11-19T12:51:40;100853.63;;;13.14;100.00
80128;BME280;69440;52.118;5.408;2023-11-19T12:54:06;100853.19;;;13.07;100.00
80128;BME280;69440;52.118;5.408;2023-11-19T12:56:33;100848.88;;;13.05;100.00
80128;BME280;69440;52.118;5.408;2023-11-19T12:59:10;100850.81;;;13.03;100.00